createdAt,value
2023-04-22T00:09:26.581Z,100
2023-04-22T00:28:44.200Z,100
2023-04-22T00:47:52.142Z,100
2023-04-22T01:07:05.484Z,100
2023-04-22T01:45:30.734Z,100
2023-04-22T02:04:39.937Z,100
2023-04-22T02:23:51.927Z,100
2023-04-22T02:43:08.019Z,100
2023-04-22T03:02:18.920Z,100
2023-04-22T03:21:27.993Z,100
2023-04-22T03:40:39.091Z,100
2023-04-22T03:59:54.020Z,100
2023-04-22T04:19:04.392Z,100
2023-04-22T04:38:19.252Z,100
2023-04-22T04:57:30.085Z,100
2023-04-22T05:16:44.171Z,96.7
2023-04-22T05:35:56.023Z,99.2
2023-04-22T05:55:11.128Z,95.6
2023-04-22T06:14:26.671Z,90.1
2023-04-22T06:33:37.444Z,83.2
2023-04-22T06:52:50.895Z,84.8
2023-04-22T07:12:06.459Z,79.5
2023-04-22T07:31:23.448Z,77.3
2023-04-22T07:50:49.088Z,59.6
2023-04-22T08:10:08.185Z,53.5
2023-04-22T08:29:18.812Z,50.6
2023-04-22T08:48:35.840Z,48.7
2023-04-22T09:07:46.301Z,50.1
2023-04-22T09:26:51.912Z,49.4
2023-04-22T09:46:07.343Z,51.9
2023-04-22T10:05:13.310Z,49.7
2023-04-22T10:24:25.694Z,49
2023-04-22T10:43:43.771Z,47.3
2023-04-22T11:02:54.871Z,47.5
2023-04-22T11:22:05.485Z,44.1
2023-04-22T11:41:16.868Z,45.3
2023-04-22T12:00:29.247Z,44.2
2023-04-22T12:38:48.976Z,45.3
2023-04-22T12:58:02.634Z,45
2023-04-22T13:17:12.236Z,46.7
2023-04-22T13:36:21.309Z,48.8
2023-04-22T13:55:32.604Z,47.6
2023-04-22T14:14:42.331Z,53.2
2023-04-22T14:33:54.133Z,58.9
2023-04-22T14:53:00.900Z,64.1
2023-04-22T15:12:08.877Z,71.6
2023-04-22T15:31:21.086Z,72.3
2023-04-22T15:50:29.816Z,78.3
2023-04-22T16:09:43.509Z,73.3
2023-04-22T16:28:56.628Z,74
2023-04-22T16:48:03.777Z,72.1
2023-04-22T17:07:14.638Z,75.2
2023-04-22T17:26:20.998Z,79.8
2023-04-22T17:45:31.260Z,86.6
2023-04-22T18:04:41.623Z,92.7
2023-04-22T18:23:52.255Z,99.8
2023-04-22T18:43:02.740Z,100
2023-04-22T19:02:12.256Z,100
2023-04-22T19:21:23.260Z,96.1
2023-04-22T19:40:34.658Z,100
2023-04-22T19:59:49.334Z,99.8
2023-04-22T20:18:58.287Z,100
2023-04-22T20:38:09.548Z,100
2023-04-22T20:57:20.842Z,100
2023-04-22T21:16:31.036Z,100
2023-04-22T21:35:41.473Z,100
2023-04-22T21:54:54.400Z,100
2023-04-22T22:14:04.155Z,100
2023-04-22T22:33:16.897Z,100
2023-04-22T22:52:25.332Z,100
2023-04-22T23:11:37.473Z,100
2023-04-22T23:30:50.243Z,100
2023-04-22T23:49:59.914Z,100
